sensor_id;sensor_type;location;lat;lon;timestamp;pressure;altitude;pressure_sealevel;temperature;humidity
35758;BME280;21879;50.110;18.900;2023-02-26T00:01:54;97456.91;;;2.62;70.13
35758;BME280;21879;50.110;18.900;2023-02-26T00:12:21;97475.11;;;2.64;69.65
35758;BME280;21879;50.110;18.900;2023-02-26T00:22:47;97486.27;;;2.66;69.57
35758;BME280;21879;50.110;18.900;2023-02-26T00:33:12;97500.85;;;2.60;69.32
35758;BME280;21879;50.110;18.900;2023-02-26T00:43:37;97514.88;;;2.48;69.38
35758;BME280;21879;50.110;18.900;2023-02-26T00:54:07;97527.73;;;2.43;69.51
35758;BME280;21879;50.110;18.900;2023-02-26T01:04:34;97536.45;;;2.37;69.81
35758;BME280;21879;50.110;18.900;2023-02-26T01:15:00;97537.06;;;2.24;69.73
35758;BME280;21879;50.110;18.900;2023-02-26T01:25:29;97534.28;;;2.15;69.83
35758;BME280;21879;50.110;18.900;2023-02-26T01:36:06;97532.03;;;2.08;70.05
35758;BME280;21879;50.110;18.900;2023-02-26T01:46:35;97541.08;;;2.02;69.94
35758;BME280;21879;50.110;18.900;2023-02-26T01:57:03;97554.11;;;2.02;69.90
35758;BME280;21879;50.110;18.900;2023-02-26T02:07:29;97574.14;;;1.98;70.01
35758;BME280;21879;50.110;18.900;2023-02-26T02:18:01;97596.56;;;1.93;70.34
35758;BME280;21879;50.110;18.900;2023-02-26T02:28:39;97610.88;;;2.05;70.28
35758;BME280;21879;50.110;18.900;2023-02-26T02:39:10;97626.75;;;2.20;70.14
35758;BME280;21879;50.110;18.900;2023-02-26T02:49:41;97627.23;;;2.15;69.90
35758;BME280;21879;50.110;18.900;2023-02-26T03:00:10;97621.02;;;2.08;69.35
35758;BME280;21879;50.110;18.900;2023-02-26T03:10:36;97632.17;;;2.09;68.91
35758;BME280;21879;50.110;18.900;2023-02-26T03:21:05;97651.08;;;2.16;68.58
35758;BME280;21879;50.110;18.900;2023-02-26T03:31:38;97672.92;;;2.27;68.25
35758;BME280;21879;50.110;18.900;2023-02-26T03:42:10;97700.70;;;2.27;68.03
35758;BME280;21879;50.110;18.900;2023-02-26T03:52:54;97715.55;;;2.17;67.36
35758;BME280;21879;50.110;18.900;2023-02-26T04:03:25;97726.02;;;2.17;67.83
35758;BME280;21879;50.110;18.900;2023-02-26T04:13:52;97740.43;;;2.16;67.20
35758;BME280;21879;50.110;18.900;2023-02-26T04:24:17;97767.05;;;2.20;67.37
35758;BME280;21879;50.110;18.900;2023-02-26T04:34:41;97768.94;;;2.22;66.75
35758;BME280;21879;50.110;18.900;2023-02-26T04:45:07;97790.09;;;2.09;66.29
35758;BME280;21879;50.110;18.900;2023-02-26T04:55:31;97805.05;;;2.14;65.99
35758;BME280;21879;50.110;18.900;2023-02-26T05:05:56;97819.10;;;2.13;65.46
35758;BME280;21879;50.110;18.900;2023-02-26T05:16:20;97830.09;;;2.14;65.16
35758;BME280;21879;50.110;18.900;2023-02-26T05:26:45;97836.19;;;2.06;65.24
35758;BME280;21879;50.110;18.900;2023-02-26T05:37:09;97857.42;;;2.03;64.86
35758;BME280;21879;50.110;18.900;2023-02-26T05:47:34;97888.98;;;2.03;64.93
35758;BME280;21879;50.110;18.900;2023-02-26T05:57:59;97918.29;;;2.03;64.90
35758;BME280;21879;50.110;18.900;2023-02-26T06:08:24;97939.74;;;2.05;65.19
35758;BME280;21879;50.110;18.900;2023-02-26T06:18:50;97959.80;;;2.05;65.37
35758;BME280;21879;50.110;18.900;2023-02-26T06:29:15;97977.19;;;1.97;65.24
35758;BME280;21879;50.110;18.900;2023-02-26T06:39:41;97990.55;;;1.97;65.44
35758;BME280;21879;50.110;18.900;2023-02-26T06:50:08;98008.55;;;1.96;65.72
35758;BME280;21879;50.110;18.900;2023-02-26T07:00:32;98010.91;;;2.06;66.08
35758;BME280;21879;50.110;18.900;2023-02-26T07:10:58;98010.19;;;2.16;65.68
35758;BME280;21879;50.110;18.900;2023-02-26T07:21:23;98027.52;;;2.18;65.65
35758;BME280;21879;50.110;18.900;2023-02-26T07:31:48;98040.91;;;2.19;65.79
35758;BME280;21879;50.110;18.900;2023-02-26T07:42:12;98054.45;;;2.16;66.18
35758;BME280;21879;50.110;18.900;2023-02-26T07:52:37;98071.50;;;2.36;66.59
35758;BME280;21879;50.110;18.900;2023-02-26T08:03:03;98074.80;;;2.53;66.32
35758;BME280;21879;50.110;18.900;2023-02-26T08:13:28;98085.00;;;2.45;65.84
35758;BME280;21879;50.110;18.900;2023-02-26T08:23:52;98093.27;;;2.48;66.16
35758;BME280;21879;50.110;18.900;2023-02-26T08:34:17;98101.35;;;2.77;66.11
35758;BME280;21879;50.110;18.900;2023-02-26T08:44:42;98107.77;;;2.80;65.00
35758;BME280;21879;50.110;18.900;2023-02-26T08:55:09;98130.08;;;2.54;64.37
35758;BME280;21879;50.110;18.900;2023-02-26T09:05:34;98149.23;;;2.01;64.39
35758;BME280;21879;50.110;18.900;2023-02-26T09:15:59;98169.90;;;1.97;65.07
35758;BME280;21879;50.110;18.900;2023-02-26T09:26:24;98180.59;;;2.11;65.75
35758;BME280;21879;50.110;18.900;2023-02-26T09:36:49;98185.14;;;2.18;65.27
35758;BME280;21879;50.110;18.900;2023-02-26T09:47:17;98192.45;;;2.24;64.61
35758;BME280;21879;50.110;18.900;2023-02-26T09:57:46;98197.45;;;2.25;63.18
35758;BME280;21879;50.110;18.900;2023-02-26T10:08:15;98209.77;;;2.35;61.85
35758;BME280;21879;50.110;18.900;2023-02-26T10:18:43;98223.35;;;2.47;61.92
35758;BME280;21879;50.110;18.900;2023-02-26T10:29:19;98248.64;;;2.42;61.46
35758;BME280;21879;50.110;18.900;2023-02-26T10:39:50;98259.98;;;2.42;61.77
35758;BME280;21879;50.110;18.900;2023-02-26T10:50:20;98283.58;;;2.27;62.00
35758;BME280;21879;50.110;18.900;2023-02-26T11:00:48;98293.56;;;2.08;63.12
35758;BME280;21879;50.110;18.900;2023-02-26T11:11:40;98297.66;;;1.98;63.87
35758;BME280;21879;50.110;18.900;2023-02-26T11:22:06;98306.35;;;2.04;62.91
35758;BME280;21879;50.110;18.900;2023-02-26T11:32:34;98327.46;;;1.87;63.19
35758;BME280;21879;50.110;18.900;2023-02-26T11:43:03;98340.88;;;1.89;64.24
35758;BME280;21879;50.110;18.900;2023-02-26T11:53:33;98355.33;;;2.01;64.77
35758;BME280;21879;50.110;18.900;2023-02-26T12:04:02;98367.29;;;2.08;64.58
35758;BME280;21879;50.110;18.900;2023-02-26T12:14:48;98395.83;;;1.86;62.85
35758;BME280;21879;50.110;18.900;2023-02-26T12:25:23;98406.58;;;1.58;62.46
35758;BME280;21879;50.110;18.900;2023-02-26T12:36:01;98416.92;;;1.77;63.03
35758;BME280;21879;50.110;18.900;2023-02-26T12:46:45;98424.84;;;1.95;63.09
35758;BME280;21879;50.110;18.900;2023-02-26T12:57:29;98437.03;;;1.87;63.16
35758;BME280;21879;50.110;18.900;2023-02-26T13:08:06;98438.52;;;1.84;63.80
35758;BME280;21879;50.110;18.900;2023-02-26T13:18:41;98451.48;;;1.89;63.99
35758;BME280;21879;50.110;18.900;2023-02-26T13:29:13;98470.35;;;1.91;63.41
35758;BME280;21879;50.110;18.900;2023-02-26T13:39:44;98486.66;;;1.91;64.18
35758;BME280;21879;50.110;18.900;2023-02-26T13:50:32;98510.50;;;1.84;64.73
35758;BME280;21879;50.110;18.900;2023-02-26T14:01:06;98529.02;;;1.69;64.70
35758;BME280;21879;50.110;18.900;2023-02-26T14:11:42;98537.02;;;1.74;64.36
35758;BME280;21879;50.110;18.900;2023-02-26T14:22:18;98532.83;;;1.86;64.04
35758;BME280;21879;50.110;18.900;2023-02-26T14:32:47;98533.95;;;1.98;63.55
35758;BME280;21879;50.110;18.900;2023-02-26T14:43:17;98534.60;;;2.04;62.66
35758;BME280;21879;50.110;18.900;2023-02-26T14:53:56;98550.36;;;1.96;62.22
35758;BME280;21879;50.110;18.900;2023-02-26T15:04:41;98581.88;;;1.94;62.51
35758;BME280;21879;50.110;18.900;2023-02-26T15:15:25;98597.02;;;1.96;62.45
35758;BME280;21879;50.110;18.900;2023-02-26T15:25:53;98616.85;;;1.86;62.03
35758;BME280;21879;50.110;18.900;2023-02-26T15:36:20;98624.75;;;1.73;62.56
35758;BME280;21879;50.110;18.900;2023-02-26T15:46:51;98636.41;;;1.66;62.80
35758;BME280;21879;50.110;18.900;2023-02-26T15:57:18;98649.58;;;1.65;63.15
35758;BME280;21879;50.110;18.900;2023-02-26T16:07:43;98657.52;;;1.81;63.17
35758;BME280;21879;50.110;18.900;2023-02-26T16:18:12;98679.38;;;1.84;62.54
35758;BME280;21879;50.110;18.900;2023-02-26T16:28:40;98701.89;;;1.59;62.77
35758;BME280;21879;50.110;18.900;2023-02-26T16:39:19;98732.24;;;1.35;63.53
35758;BME280;21879;50.110;18.900;2023-02-26T16:49:47;98741.09;;;1.14;64.28
35758;BME280;21879;50.110;18.900;2023-02-26T17:00:16;98735.86;;;1.05;64.44
35758;BME280;21879;50.110;18.900;2023-02-26T17:10:54;98747.46;;;1.09;65.27
35758;BME280;21879;50.110;18.900;2023-02-26T17:21:23;98757.80;;;1.17;65.24
35758;BME280;21879;50.110;18.900;2023-02-26T17:31:49;98781.70;;;1.27;65.28
35758;BME280;21879;50.110;18.900;2023-02-26T17:42:16;98795.63;;;1.47;64.92
35758;BME280;21879;50.110;18.900;2023-02-26T17:52:44;98805.13;;;1.62;64.68
35758;BME280;21879;50.110;18.900;2023-02-26T18:03:09;98806.56;;;1.83;64.08
35758;BME280;21879;50.110;18.900;2023-02-26T18:13:34;98809.36;;;1.79;63.90
35758;BME280;21879;50.110;18.900;2023-02-26T18:24:00;98823.61;;;2.05;64.50
35758;BME280;21879;50.110;18.900;2023-02-26T18:34:24;98834.23;;;2.45;64.04
35758;BME280;21879;50.110;18.900;2023-02-26T18:44:50;98836.14;;;2.67;63.64
35758;BME280;21879;50.110;18.900;2023-02-26T18:55:16;98847.67;;;2.69;62.96
35758;BME280;21879;50.110;18.900;2023-02-26T19:05:41;98861.27;;;2.55;62.72
35758;BME280;21879;50.110;18.900;2023-02-26T19:16:06;98874.23;;;2.81;62.61
35758;BME280;21879;50.110;18.900;2023-02-26T19:26:30;98880.27;;;3.04;62.68
35758;BME280;21879;50.110;18.900;2023-02-26T19:36:55;98886.75;;;3.10;62.67
35758;BME280;21879;50.110;18.900;2023-02-26T19:47:20;98887.20;;;3.06;62.11
35758;BME280;21879;50.110;18.900;2023-02-26T19:57:53;98902.59;;;3.03;62.23
35758;BME280;21879;50.110;18.900;2023-02-26T20:08:18;98918.02;;;3.09;62.46
35758;BME280;21879;50.110;18.900;2023-02-26T20:18:44;98927.67;;;3.18;62.78
35758;BME280;21879;50.110;18.900;2023-02-26T20:29:08;98927.49;;;3.17;62.43
35758;BME280;21879;50.110;18.900;2023-02-26T20:39:33;98928.34;;;3.17;62.15
35758;BME280;21879;50.110;18.900;2023-02-26T20:49:58;98942.88;;;3.28;61.97
35758;BME280;21879;50.110;18.900;2023-02-26T21:00:23;98953.89;;;3.01;61.50
35758;BME280;21879;50.110;18.900;2023-02-26T21:10:50;98964.86;;;2.66;61.90
35758;BME280;21879;50.110;18.900;2023-02-26T21:21:14;98965.31;;;2.44;62.47
35758;BME280;21879;50.110;18.900;2023-02-26T21:31:39;98974.64;;;2.27;62.75
35758;BME280;21879;50.110;18.900;2023-02-26T21:42:06;98979.30;;;2.22;63.56
35758;BME280;21879;50.110;18.900;2023-02-26T21:52:31;98987.37;;;2.16;63.51
35758;BME280;21879;50.110;18.900;2023-02-26T22:02:56;98994.95;;;2.00;63.59
35758;BME280;21879;50.110;18.900;2023-02-26T22:13:21;99004.02;;;1.81;63.85
35758;BME280;21879;50.110;18.900;2023-02-26T22:23:46;99016.86;;;1.48;64.39
35758;BME280;21879;50.110;18.900;2023-02-26T22:34:11;99022.01;;;1.48;64.49
35758;BME280;21879;50.110;18.900;2023-02-26T22:44:36;99028.47;;;1.57;64.55
35758;BME280;21879;50.110;18.900;2023-02-26T22:55:00;99027.41;;;1.40;64.52
35758;BME280;21879;50.110;18.900;2023-02-26T23:05:24;99041.02;;;1.42;64.23
35758;BME280;21879;50.110;18.900;2023-02-26T23:15:48;99049.09;;;1.37;63.23
35758;BME280;21879;50.110;18.900;2023-02-26T23:26:13;99060.97;;;1.24;62.94
35758;BME280;21879;50.110;18.900;2023-02-26T23:36:37;99070.52;;;1.23;62.74
35758;BME280;21879;50.110;18.900;2023-02-26T23:47:01;99070.63;;;1.26;62.37
35758;BME280;21879;50.110;18.900;2023-02-26T23:57:25;99068.37;;;1.25;62.28
